Time;durP1;ratioP1;P1;durP2;ratioP2;P2;SDS_P1;SDS_P2;PMS_P1;PMS_P2;Temp;Humidity;BMP_temperature;BMP_pressure;BME280_temperature;BME280_humidity;BME280_pressure;Samples;Min_cycle;Max_cycle;Signal;HPM_P1;HPM_P2
2023/05/07 00:01:37;;;;;;;3.97;2.50;;;18.40;99.90;;;;;;5032696;28;20216;-71
2023/05/07 00:04:03;;;;;;;5.53;3.17;;;18.40;99.90;;;;;;5032416;28;20264;-71
2023/05/07 00:06:29;;;;;;;2.53;2.33;;;18.40;99.90;;;;;;5026188;28;20312;-71
2023/05/07 00:08:56;;;;;;;3.10;2.90;;;18.40;99.90;;;;;;5034136;28;20287;-71
2023/05/07 00:11:22;;;;;;;3.57;2.80;;;18.30;99.90;;;;;;5023945;28;20897;-72
2023/05/07 00:13:47;;;;;;;3.47;3.13;;;18.30;99.90;;;;;;5040526;28;20463;-72
2023/05/07 00:16:13;;;;;;;3.57;3.27;;;18.30;99.90;;;;;;5012625;28;20304;-71
2023/05/07 00:18:39;;;;;;;3.47;3.17;;;18.20;99.90;;;;;;5034804;28;20217;-71
2023/05/07 00:21:05;;;;;;;3.60;3.17;;;18.20;99.90;;;;;;5033139;28;20263;-70
2023/05/07 00:23:30;;;;;;;2.70;2.40;;;18.20;99.90;;;;;;5033311;28;20221;-70
2023/05/07 00:25:56;;;;;;;4.67;2.40;;;18.10;99.90;;;;;;5020345;28;20232;-72
2023/05/07 00:28:22;;;;;;;2.90;2.60;;;18.10;99.90;;;;;;5003015;28;20221;-73
2023/05/07 00:30:47;;;;;;;3.10;2.70;;;18.10;99.90;;;;;;5019562;28;20225;-72
2023/05/07 00:33:13;;;;;;;3.47;2.90;;;18.10;99.90;;;;;;5028390;28;20289;-72
2023/05/07 00:35:39;;;;;;;3.07;2.87;;;18.10;99.90;;;;;;5030590;28;20212;-71
2023/05/07 00:38:04;;;;;;;2.63;2.43;;;18.00;99.90;;;;;;5014958;28;20224;-71
2023/05/07 00:40:30;;;;;;;3.13;2.90;;;18.10;99.90;;;;;;5013736;28;20602;-71
2023/05/07 00:42:57;;;;;;;2.20;2.00;;;18.00;99.90;;;;;;5017838;28;20232;-73
2023/05/07 00:45:27;;;;;;;3.10;2.57;;;18.00;99.90;;;;;;5029659;28;21118;-71
2023/05/07 00:47:58;;;;;;;2.33;2.13;;;17.90;99.90;;;;;;5020320;28;20459;-72
2023/05/07 00:50:26;;;;;;;2.80;2.60;;;18.00;99.90;;;;;;5017797;28;20480;-71
2023/05/07 00:52:52;;;;;;;4.50;2.80;;;18.00;99.90;;;;;;5030527;28;20463;-73
2023/05/07 00:55:22;;;;;;;2.90;2.70;;;18.00;99.90;;;;;;5000924;28;20456;-73
2023/05/07 00:57:49;;;;;;;3.23;2.40;;;17.90;99.90;;;;;;5024351;28;20449;-72
2023/05/07 01:00:15;;;;;;;3.43;2.70;;;17.90;99.90;;;;;;5013652;28;20540;-72
2023/05/07 01:02:42;;;;;;;3.50;2.60;;;17.90;99.90;;;;;;5033573;28;20534;-71
2023/05/07 01:05:14;;;;;;;3.33;2.70;;;17.90;99.90;;;;;;5019957;28;20220;-72
2023/05/07 01:07:40;;;;;;;2.47;2.30;;;17.80;99.90;;;;;;5018291;28;20478;-71
2023/05/07 01:10:08;;;;;;;2.20;2.10;;;17.80;99.90;;;;;;5030457;28;20456;-78
2023/05/07 01:12:36;;;;;;;2.50;2.30;;;17.80;99.90;;;;;;5008470;28;20937;-72
2023/05/07 01:15:04;;;;;;;4.00;2.70;;;17.80;99.90;;;;;;5001534;28;20458;-70
2023/05/07 01:17:33;;;;;;;2.57;2.37;;;17.80;99.90;;;;;;5022885;28;20539;-72
2023/05/07 01:19:59;;;;;;;2.70;2.50;;;17.70;99.90;;;;;;5030834;28;20463;-71
2023/05/07 01:22:33;;;;;;;2.83;2.63;;;17.60;99.90;;;;;;5037290;28;20966;-71
2023/05/07 01:25:01;;;;;;;2.80;2.50;;;17.60;99.90;;;;;;5038295;28;20220;-71
2023/05/07 01:27:27;;;;;;;2.70;2.50;;;17.50;99.90;;;;;;5017995;28;20495;-71
2023/05/07 01:29:53;;;;;;;3.57;2.83;;;17.40;99.90;;;;;;5014178;28;20451;-71
2023/05/07 01:32:27;;;;;;;2.87;2.63;;;17.40;99.90;;;;;;5028711;28;20415;-71
2023/05/07 01:34:54;;;;;;;3.30;2.27;;;17.40;99.90;;;;;;5029584;28;20540;-72
2023/05/07 01:37:20;;;;;;;3.03;2.20;;;17.30;99.90;;;;;;5030141;28;20461;-71
2023/05/07 01:39:47;;;;;;;3.50;2.57;;;17.20;99.90;;;;;;5016121;28;20498;-71
2023/05/07 01:42:13;;;;;;;3.53;2.83;;;17.20;99.90;;;;;;5043160;28;20459;-72
2023/05/07 01:44:39;;;;;;;2.50;2.40;;;17.20;99.90;;;;;;5028736;28;20448;-72
2023/05/07 01:47:06;;;;;;;2.40;2.20;;;17.30;99.90;;;;;;5033422;28;20312;-72
2023/05/07 01:49:31;;;;;;;2.27;2.07;;;17.40;99.90;;;;;;5020907;28;20444;-71
2023/05/07 01:51:58;;;;;;;4.33;2.47;;;17.40;99.90;;;;;;5035524;28;20517;-72
2023/05/07 01:54:27;;;;;;;2.40;2.20;;;17.40;99.90;;;;;;5032806;28;20580;-72
2023/05/07 01:56:55;;;;;;;2.97;2.27;;;17.40;99.90;;;;;;5009641;28;20488;-73
2023/05/07 01:59:21;;;;;;;2.30;2.03;;;17.40;99.90;;;;;;5036491;28;21018;-72
2023/05/07 02:01:47;;;;;;;2.20;2.00;;;17.40;99.90;;;;;;5010790;28;20452;-72
2023/05/07 02:04:13;;;;;;;2.17;2.00;;;17.40;99.90;;;;;;5044246;28;20216;-70
2023/05/07 02:06:39;;;;;;;2.27;2.07;;;17.30;99.90;;;;;;5009859;28;20232;-71
2023/05/07 02:09:06;;;;;;;2.33;2.13;;;17.30;99.90;;;;;;5022649;28;20213;-73
2023/05/07 02:11:32;;;;;;;2.40;2.20;;;17.20;99.90;;;;;;5029954;28;20463;-72
2023/05/07 02:13:57;;;;;;;2.57;2.37;;;17.20;99.90;;;;;;5030066;28;20265;-72
2023/05/07 02:16:23;;;;;;;2.47;2.23;;;17.20;99.90;;;;;;5024324;28;20727;-71
2023/05/07 02:18:50;;;;;;;2.60;2.40;;;17.20;99.90;;;;;;5029924;28;20621;-72
2023/05/07 02:21:16;;;;;;;3.00;2.77;;;17.20;99.90;;;;;;5022351;28;20458;-72
2023/05/07 02:23:42;;;;;;;3.50;2.40;;;17.20;99.90;;;;;;5035497;28;20233;-72
2023/05/07 02:26:08;;;;;;;3.40;2.73;;;17.20;99.90;;;;;;5019097;28;20270;-72
2023/05/07 02:28:37;;;;;;;2.30;2.10;;;17.20;99.90;;;;;;5025890;28;20296;-72
2023/05/07 02:31:04;;;;;;;2.40;2.20;;;17.10;99.90;;;;;;5035876;28;20991;-71
2023/05/07 02:33:30;;;;;;;2.83;2.63;;;17.10;99.90;;;;;;5033807;28;20561;-71
2023/05/07 02:35:56;;;;;;;2.87;2.40;;;17.10;99.90;;;;;;5033640;28;20456;-72
2023/05/07 02:38:23;;;;;;;3.70;2.20;;;17.10;99.90;;;;;;5007138;28;20473;-72
2023/05/07 02:40:48;;;;;;;2.70;2.47;;;17.10;99.90;;;;;;5019200;28;20221;-72
2023/05/07 02:43:15;;;;;;;3.80;2.70;;;17.10;99.90;;;;;;5018358;28;20550;-72
2023/05/07 02:45:44;;;;;;;2.27;2.07;;;17.10;99.90;;;;;;5023344;28;20455;-72
2023/05/07 02:48:10;;;;;;;2.57;2.37;;;17.10;99.90;;;;;;5018345;28;20539;-71
2023/05/07 02:50:36;;;;;;;3.60;2.53;;;17.00;99.90;;;;;;5009452;28;20527;-72
2023/05/07 02:53:02;;;;;;;2.13;2.00;;;17.10;99.90;;;;;;5019484;28;20217;-72
2023/05/07 02:55:28;;;;;;;3.17;2.60;;;17.00;99.90;;;;;;5026082;28;20255;-71
2023/05/07 02:57:53;;;;;;;2.53;2.33;;;17.00;99.90;;;;;;5013705;28;20452;-72
2023/05/07 03:00:20;;;;;;;3.00;2.80;;;17.00;99.90;;;;;;5037554;28;20208;-72
2023/05/07 03:02:56;;;;;;;2.10;1.93;;;17.00;99.90;;;;;;5015181;28;20221;-72
2023/05/07 03:05:22;;;;;;;2.27;2.10;;;17.00;99.90;;;;;;5027746;28;20443;-72
2023/05/07 03:07:47;;;;;;;2.30;2.10;;;17.00;99.90;;;;;;5040193;28;20259;-72
2023/05/07 03:10:14;;;;;;;2.40;2.20;;;17.00;99.90;;;;;;5020924;28;20308;-72
2023/05/07 03:12:40;;;;;;;3.30;2.40;;;17.00;99.90;;;;;;5021461;28;20457;-72
2023/05/07 03:15:07;;;;;;;3.17;2.43;;;17.00;99.90;;;;;;5025742;28;20539;-71
2023/05/07 03:17:33;;;;;;;5.87;2.53;;;17.00;99.90;;;;;;5020209;28;20444;-72
2023/05/07 03:19:59;;;;;;;5.03;2.20;;;17.00;99.90;;;;;;5020547;28;20498;-72
2023/05/07 03:22:25;;;;;;;2.70;2.50;;;17.00;99.90;;;;;;5029610;28;20197;-72
2023/05/07 03:24:50;;;;;;;2.67;2.43;;;17.00;99.90;;;;;;5030690;28;20208;-72
2023/05/07 03:27:16;;;;;;;2.80;2.47;;;16.90;99.90;;;;;;5038849;28;20213;-72
2023/05/07 03:29:42;;;;;;;2.90;2.60;;;16.90;99.90;;;;;;5024383;28;20213;-72
2023/05/07 03:32:08;;;;;;;2.10;1.90;;;16.90;99.90;;;;;;5025711;28;20488;-71
2023/05/07 03:34:34;;;;;;;3.70;2.23;;;17.00;99.90;;;;;;5074883;28;20753;-72
2023/05/07 03:37:00;;;;;;;2.23;2.03;;;17.00;99.90;;;;;;5039040;28;20535;-70
2023/05/07 03:39:26;;;;;;;1.90;1.80;;;16.90;99.90;;;;;;5014339;28;20227;-72
2023/05/07 03:41:52;;;;;;;2.67;2.47;;;17.00;99.90;;;;;;5027990;28;20208;-72
2023/05/07 03:44:18;;;;;;;3.00;2.70;;;16.90;99.90;;;;;;5014603;28;20705;-72
2023/05/07 03:46:44;;;;;;;2.37;2.17;;;16.90;99.90;;;;;;5035514;28;20452;-71
2023/05/07 03:49:10;;;;;;;2.40;2.20;;;16.90;99.90;;;;;;5040700;28;20527;-72
2023/05/07 03:51:36;;;;;;;2.40;2.20;;;16.90;99.90;;;;;;5018247;28;20548;-72
2023/05/07 03:54:04;;;;;;;3.70;2.30;;;16.90;99.90;;;;;;5037558;28;20221;-71
2023/05/07 03:56:31;;;;;;;2.20;2.00;;;16.90;99.90;;;;;;5049279;28;20443;-71
2023/05/07 03:59:00;;;;;;;2.30;2.20;;;16.80;99.90;;;;;;5019273;28;20455;-72
2023/05/07 04:01:26;;;;;;;3.00;2.70;;;16.80;99.90;;;;;;5036131;28;20987;-72
2023/05/07 04:03:51;;;;;;;3.07;2.40;;;16.90;99.90;;;;;;5035706;28;20440;-72
2023/05/07 04:06:17;;;;;;;2.97;2.73;;;16.90;99.90;;;;;;5021196;28;20633;-72
2023/05/07 04:08:45;;;;;;;2.27;2.07;;;16.80;99.90;;;;;;5031897;28;20604;-72
2023/05/07 04:11:11;;;;;;;2.80;2.60;;;16.80;99.90;;;;;;5040514;28;20585;-72
2023/05/07 04:13:37;;;;;;;3.00;2.70;;;16.70;99.90;;;;;;5032109;28;20531;-72
2023/05/07 04:16:06;;;;;;;3.00;2.80;;;16.70;99.90;;;;;;5028847;28;20205;-72
2023/05/07 04:18:34;;;;;;;2.60;2.30;;;16.70;99.90;;;;;;5030035;28;20524;-71
2023/05/07 04:21:00;;;;;;;3.40;2.60;;;16.70;99.90;;;;;;5023872;28;21042;-72
2023/05/07 04:23:25;;;;;;;2.30;2.07;;;16.70;99.90;;;;;;5029828;28;20297;-72
2023/05/07 04:25:52;;;;;;;2.70;2.50;;;16.70;99.90;;;;;;5029519;28;20268;-71
2023/05/07 04:28:24;;;;;;;3.57;2.30;;;16.60;99.90;;;;;;5037830;28;20475;-72
2023/05/07 04:30:50;;;;;;;2.50;2.30;;;16.60;99.90;;;;;;5039724;28;20471;-72
2023/05/07 04:33:17;;;;;;;2.50;2.30;;;16.60;99.90;;;;;;5020740;28;20475;-72
2023/05/07 04:35:43;;;;;;;2.67;2.43;;;16.70;99.90;;;;;;5034894;28;20451;-72
2023/05/07 04:38:09;;;;;;;2.30;2.13;;;16.70;99.90;;;;;;5029658;28;20878;-71
2023/05/07 04:40:36;;;;;;;2.67;2.43;;;16.70;99.90;;;;;;5020315;28;20709;-72
2023/05/07 04:43:02;;;;;;;2.50;1.90;;;16.70;99.90;;;;;;5039794;28;20304;-71
2023/05/07 04:45:31;;;;;;;2.67;2.47;;;16.70;99.90;;;;;;5030156;28;20510;-71
2023/05/07 04:47:57;;;;;;;2.90;2.60;;;16.70;99.90;;;;;;5035381;28;20443;-71
2023/05/07 04:50:24;;;;;;;3.00;2.70;;;16.70;99.90;;;;;;5015311;28;20490;-71
2023/05/07 04:52:52;;;;;;;2.37;2.27;;;16.80;99.90;;;;;;5037211;28;20794;-70
2023/05/07 04:55:18;;;;;;;2.50;2.30;;;16.70;99.90;;;;;;5039295;28;20984;-71
2023/05/07 04:57:44;;;;;;;3.13;2.47;;;16.70;99.90;;;;;;5036589;28;20508;-71
2023/05/07 05:00:16;;;;;;;2.33;2.23;;;16.70;99.90;;;;;;5030873;28;20737;-71
2023/05/07 05:02:44;;;;;;;2.90;2.70;;;16.60;99.90;;;;;;5035179;28;20470;-70
2023/05/07 05:05:12;;;;;;;3.33;2.67;;;16.60;99.90;;;;;;5019121;28;20497;-69
2023/05/07 05:07:38;;;;;;;4.70;2.60;;;16.70;99.90;;;;;;5030645;28;20457;-72
2023/05/07 05:10:05;;;;;;;5.53;2.77;;;16.70;99.90;;;;;;5035635;28;20254;-71
2023/05/07 05:12:34;;;;;;;3.00;2.70;;;16.70;99.90;;;;;;5042209;28;20468;-71
2023/05/07 05:15:00;;;;;;;5.33;2.60;;;16.70;99.90;;;;;;5026735;28;20966;-71
2023/05/07 05:17:27;;;;;;;2.63;2.43;;;16.60;99.90;;;;;;5008704;28;20545;-71
2023/05/07 05:19:53;;;;;;;2.30;2.20;;;16.60;99.90;;;;;;5021109;28;21362;-70
2023/05/07 05:22:19;;;;;;;2.53;2.33;;;16.70;99.90;;;;;;5029461;28;20217;-71
2023/05/07 05:24:45;;;;;;;3.00;2.80;;;16.70;99.90;;;;;;5028267;28;20469;-71
2023/05/07 05:27:10;;;;;;;3.10;2.80;;;16.70;99.90;;;;;;5034835;28;20251;-71
2023/05/07 05:29:36;;;;;;;2.47;2.17;;;16.60;99.90;;;;;;5011014;28;20224;-71
2023/05/07 05:32:02;;;;;;;3.47;2.60;;;16.70;99.90;;;;;;5031543;28;20669;-72
2023/05/07 05:34:29;;;;;;;2.70;2.50;;;16.70;99.90;;;;;;5007631;28;20217;-71
2023/05/07 05:36:56;;;;;;;4.07;3.23;;;16.70;99.90;;;;;;5008741;28;20444;-72
2023/05/07 05:39:23;;;;;;;2.90;2.20;;;16.70;99.90;;;;;;5018047;28;20457;-72
2023/05/07 05:41:49;;;;;;;2.97;2.67;;;16.80;99.90;;;;;;5026268;28;20452;-72
2023/05/07 05:44:14;;;;;;;2.37;2.17;;;16.80;99.90;;;;;;5008693;28;20506;-72
2023/05/07 05:46:42;;;;;;;2.57;2.37;;;16.80;99.90;;;;;;5007866;28;20441;-71
2023/05/07 05:49:08;;;;;;;2.83;2.47;;;16.70;99.90;;;;;;5033938;28;20534;-71
2023/05/07 05:51:34;;;;;;;2.40;2.07;;;16.80;99.90;;;;;;5027538;28;20229;-72
2023/05/07 05:54:00;;;;;;;3.37;2.40;;;16.80;99.90;;;;;;5014740;28;21164;-71
2023/05/07 05:56:26;;;;;;;2.60;2.40;;;16.80;99.90;;;;;;5017383;28;20262;-71
2023/05/07 05:58:51;;;;;;;2.80;2.60;;;16.90;99.90;;;;;;5008662;28;20236;-71
2023/05/07 06:01:18;;;;;;;2.57;2.37;;;16.90;99.90;;;;;;5008228;28;20213;-71
2023/05/07 06:03:44;;;;;;;2.63;2.43;;;16.80;99.90;;;;;;5032924;28;20820;-71
2023/05/07 06:06:14;;;;;;;2.27;2.07;;;16.90;99.90;;;;;;5037036;28;20455;-72
2023/05/07 06:08:42;;;;;;;2.37;2.10;;;16.90;99.90;;;;;;5011351;28;20463;-71
2023/05/07 06:11:09;;;;;;;4.03;2.20;;;16.90;99.90;;;;;;5044392;28;20974;-72
2023/05/07 06:13:37;;;;;;;2.47;2.27;;;16.90;99.90;;;;;;5008258;28;20459;-72
2023/05/07 06:16:03;;;;;;;2.80;2.40;;;16.90;99.90;;;;;;5025985;28;20595;-71
2023/05/07 06:18:29;;;;;;;2.70;2.50;;;16.80;99.90;;;;;;5026563;28;20710;-72
2023/05/07 06:20:55;;;;;;;2.97;2.43;;;16.90;99.90;;;;;;5031933;28;20308;-72
2023/05/07 06:23:25;;;;;;;3.67;2.63;;;16.80;99.90;;;;;;5029209;28;20226;-72
2023/05/07 06:25:51;;;;;;;6.87;3.00;;;16.80;99.90;;;;;;5034582;28;20455;-71
2023/05/07 06:28:19;;;;;;;3.03;2.20;;;16.90;99.90;;;;;;5039015;28;20466;-71
2023/05/07 06:30:46;;;;;;;2.47;2.27;;;16.90;99.90;;;;;;5035702;28;20467;-72
2023/05/07 06:33:11;;;;;;;5.30;2.70;;;16.90;99.90;;;;;;5027698;28;20458;-71
2023/05/07 06:35:37;;;;;;;3.20;2.87;;;16.90;99.90;;;;;;5021602;28;20217;-72
2023/05/07 06:38:03;;;;;;;4.13;3.27;;;16.90;99.90;;;;;;5016661;28;20216;-71
2023/05/07 06:40:29;;;;;;;3.23;2.80;;;16.90;99.90;;;;;;5013032;28;20214;-72
2023/05/07 06:42:58;;;;;;;3.20;2.47;;;17.00;99.90;;;;;;5035979;28;20524;-72
2023/05/07 06:45:47;;;;;;;3.00;2.63;;;17.00;99.90;;;;;;5035346;28;20509;-72
2023/05/07 06:48:13;;;;;;;2.63;2.20;;;17.00;99.90;;;;;;5042209;28;20451;-72
2023/05/07 06:50:52;;;;;;;2.50;2.30;;;17.00;99.90;;;;;;5037800;28;20229;-71
2023/05/07 06:53:18;;;;;;;2.60;2.40;;;17.10;99.90;;;;;;5011158;28;20457;-72
2023/05/07 06:55:44;;;;;;;6.13;2.80;;;17.10;99.90;;;;;;5037829;28;20470;-72
2023/05/07 06:58:11;;;;;;;3.07;2.47;;;17.10;99.90;;;;;;5037192;28;20216;-72
2023/05/07 07:00:37;;;;;;;2.50;2.30;;;17.10;99.90;;;;;;5036671;28;20463;-70
2023/05/07 07:03:03;;;;;;;5.87;2.50;;;17.10;99.90;;;;;;5035947;28;20452;-71
2023/05/07 07:05:29;;;;;;;3.57;2.57;;;17.10;99.90;;;;;;5041116;28;20235;-72
2023/05/07 07:07:56;;;;;;;4.17;2.93;;;17.10;99.90;;;;;;5019772;28;20465;-72
2023/05/07 07:10:22;;;;;;;6.43;2.60;;;17.10;99.90;;;;;;5018935;28;20454;-71
2023/05/07 07:12:50;;;;;;;2.57;2.27;;;17.10;99.90;;;;;;5013040;28;20708;-72
2023/05/07 07:15:16;;;;;;;3.73;2.43;;;17.10;99.90;;;;;;5035645;28;20985;-70
2023/05/07 07:17:42;;;;;;;3.00;2.70;;;17.20;99.90;;;;;;5028233;28;20447;-72
2023/05/07 07:20:08;;;;;;;2.93;2.73;;;17.10;99.90;;;;;;5041755;28;20866;-71
2023/05/07 07:22:34;;;;;;;3.00;2.70;;;17.20;99.90;;;;;;5038487;28;20221;-71
2023/05/07 07:25:00;;;;;;;2.80;2.60;;;17.20;99.90;;;;;;5029607;28;20459;-71
2023/05/07 07:27:25;;;;;;;3.23;2.80;;;17.20;99.90;;;;;;5034505;28;20473;-72
2023/05/07 07:29:51;;;;;;;3.33;3.03;;;17.20;99.90;;;;;;5032427;28;20224;-72
2023/05/07 07:32:17;;;;;;;4.03;2.83;;;17.30;99.90;;;;;;5030454;28;20587;-72
2023/05/07 07:34:43;;;;;;;2.80;2.50;;;17.30;99.90;;;;;;5020334;28;20456;-71
2023/05/07 07:37:09;;;;;;;3.20;2.80;;;17.30;99.90;;;;;;5035292;28;20451;-72
2023/05/07 07:39:37;;;;;;;3.27;3.00;;;17.30;99.90;;;;;;5013104;28;20220;-72
2023/05/07 07:42:03;;;;;;;4.20;2.93;;;17.30;99.90;;;;;;5026777;28;20444;-71
2023/05/07 07:44:30;;;;;;;3.00;2.70;;;17.30;99.90;;;;;;5032905;28;20443;-72
2023/05/07 07:47:00;;;;;;;3.47;2.87;;;17.30;99.90;;;;;;5027237;28;20539;-72
2023/05/07 07:49:27;;;;;;;3.17;2.60;;;17.40;99.90;;;;;;5021512;28;20505;-71
2023/05/07 07:51:53;;;;;;;3.80;3.03;;;17.30;99.90;;;;;;5027103;28;20563;-71
2023/05/07 07:54:19;;;;;;;3.03;2.73;;;17.40;99.90;;;;;;5012350;28;20499;-72
2023/05/07 07:56:44;;;;;;;3.00;2.70;;;17.40;99.90;;;;;;5023915;28;20221;-71
2023/05/07 07:59:13;;;;;;;3.33;3.03;;;17.50;99.90;;;;;;5005289;28;20263;-72
2023/05/07 08:01:40;;;;;;;2.80;2.60;;;17.50;99.90;;;;;;5035376;28;20976;-71
2023/05/07 08:04:07;;;;;;;3.13;2.77;;;17.50;99.90;;;;;;5027336;28;21040;-72
2023/05/07 08:06:36;;;;;;;2.60;2.40;;;17.50;99.90;;;;;;5012107;28;20459;-73
2023/05/07 08:09:02;;;;;;;3.40;3.20;;;17.50;99.90;;;;;;5026751;28;20455;-72
2023/05/07 08:11:28;;;;;;;3.07;2.80;;;17.60;99.90;;;;;;5018756;28;20237;-70
2023/05/07 08:13:55;;;;;;;3.77;2.83;;;17.60;99.90;;;;;;5022943;28;20471;-71
2023/05/07 08:16:21;;;;;;;3.40;3.20;;;17.60;99.90;;;;;;5010597;28;20552;-73
2023/05/07 08:18:47;;;;;;;2.90;2.70;;;17.70;99.90;;;;;;5012125;28;20460;-72
2023/05/07 08:21:13;;;;;;;3.63;2.97;;;17.70;99.90;;;;;;5019145;28;20529;-71
2023/05/07 08:23:39;;;;;;;3.40;3.10;;;17.70;99.90;;;;;;5023786;28;20222;-72
2023/05/07 08:26:08;;;;;;;3.37;3.07;;;17.70;99.90;;;;;;5033993;28;20212;-71
2023/05/07 08:28:35;;;;;;;2.80;2.60;;;17.70;99.90;;;;;;5029773;28;20523;-72
2023/05/07 08:31:01;;;;;;;3.43;3.13;;;17.80;99.90;;;;;;5035444;28;20567;-72
2023/05/07 08:33:30;;;;;;;3.00;2.80;;;17.80;99.90;;;;;;5000304;28;20225;-72
2023/05/07 08:35:56;;;;;;;3.03;2.80;;;17.90;99.90;;;;;;5030730;28;20830;-72
2023/05/07 08:38:22;;;;;;;3.67;3.37;;;17.90;99.90;;;;;;5003493;28;20882;-73
2023/05/07 08:40:48;;;;;;;3.17;2.97;;;17.90;99.90;;;;;;5027914;28;20834;-72
2023/05/07 08:43:19;;;;;;;3.60;3.20;;;17.90;99.90;;;;;;5019719;28;20460;-72
2023/05/07 08:45:45;;;;;;;3.30;3.03;;;18.00;99.90;;;;;;5028897;28;20551;-71
2023/05/07 08:48:16;;;;;;;3.13;2.83;;;18.00;99.90;;;;;;5015783;28;20967;-72
2023/05/07 08:50:46;;;;;;;6.73;3.80;;;18.00;99.90;;;;;;5031269;28;20464;-72
2023/05/07 08:53:12;;;;;;;3.37;3.07;;;18.10;99.90;;;;;;5002044;28;20464;-71
2023/05/07 08:55:38;;;;;;;3.80;3.50;;;18.20;99.90;;;;;;5009157;28;20456;-72
2023/05/07 08:58:04;;;;;;;4.83;3.67;;;18.10;99.90;;;;;;5033271;28;20896;-71
2023/05/07 09:00:32;;;;;;;5.50;3.43;;;18.20;99.90;;;;;;5019323;28;20278;-72
2023/05/07 09:03:00;;;;;;;5.20;3.77;;;18.30;99.90;;;;;;5021112;28;20475;-71
2023/05/07 09:05:26;;;;;;;3.70;3.40;;;18.30;99.90;;;;;;5020979;28;20460;-72
2023/05/07 09:07:52;;;;;;;4.90;3.60;;;18.30;99.90;;;;;;5025926;28;20471;-74
2023/05/07 09:10:20;;;;;;;3.70;3.40;;;18.40;99.90;;;;;;5021500;28;20561;-73
2023/05/07 09:12:47;;;;;;;5.87;3.40;;;18.50;99.90;;;;;;5031107;28;20550;-72
2023/05/07 09:15:14;;;;;;;4.03;3.63;;;18.60;99.90;;;;;;5024419;28;20460;-72
2023/05/07 09:17:42;;;;;;;3.70;3.40;;;18.70;99.90;;;;;;5020245;28;20448;-72
2023/05/07 09:20:08;;;;;;;4.20;3.87;;;18.80;99.90;;;;;;5023483;28;20440;-73
2023/05/07 09:22:36;;;;;;;4.77;3.40;;;18.70;99.90;;;;;;5030639;28;20974;-72
2023/05/07 09:25:09;;;;;;;4.03;3.63;;;18.80;99.90;;;;;;5032927;28;20459;-72
2023/05/07 09:27:36;;;;;;;4.60;4.20;;;18.70;99.90;;;;;;5004049;28;20519;-72
2023/05/07 09:30:09;;;;;;;4.00;3.60;;;18.80;99.90;;;;;;5031823;28;20452;-72
2023/05/07 09:32:40;;;;;;;3.93;3.53;;;18.80;99.90;;;;;;5030932;28;21016;-71
2023/05/07 09:35:21;;;;;;;3.60;3.30;;;18.90;99.90;;;;;;5021125;28;20446;-72
2023/05/07 09:37:56;;;;;;;7.40;3.87;;;19.00;99.90;;;;;;5043420;28;21016;-72
2023/05/07 09:40:23;;;;;;;3.70;3.37;;;19.10;99.90;;;;;;5029254;28;20987;-70
2023/05/07 09:42:50;;;;;;;4.10;3.80;;;19.10;99.90;;;;;;5024938;28;20810;-72
2023/05/07 09:45:31;;;;;;;4.60;3.80;;;19.20;99.90;;;;;;5030952;28;20451;-72
2023/05/07 09:47:58;;;;;;;7.57;4.10;;;19.20;99.90;;;;;;5027466;28;20475;-72
2023/05/07 09:50:35;;;;;;;3.80;3.50;;;19.20;99.90;;;;;;5027669;28;20463;-71
2023/05/07 09:53:03;;;;;;;4.27;3.80;;;19.20;99.90;;;;;;5031162;28;20456;-73
2023/05/07 09:55:30;;;;;;;4.57;4.07;;;19.40;99.90;;;;;;5018385;28;20515;-73
2023/05/07 09:57:58;;;;;;;3.97;3.60;;;19.50;99.90;;;;;;5016593;28;20495;-72
2023/05/07 10:00:27;;;;;;;6.60;4.10;;;19.60;99.90;;;;;;5038072;28;20462;-71
2023/05/07 10:03:02;;;;;;;4.43;4.03;;;19.60;99.90;;;;;;5031912;28;20893;-71
2023/05/07 10:05:37;;;;;;;3.73;3.47;;;19.70;99.90;;;;;;5035685;28;20452;-72
2023/05/07 10:08:03;;;;;;;4.13;3.83;;;19.90;99.90;;;;;;5020578;28;20539;-70
2023/05/07 10:10:30;;;;;;;5.40;4.17;;;20.00;99.90;;;;;;5026334;28;20949;-71
2023/05/07 10:12:57;;;;;;;3.70;3.40;;;20.10;99.90;;;;;;5045271;28;20933;-71
2023/05/07 10:15:30;;;;;;;4.30;3.90;;;20.00;99.90;;;;;;5045150;28;20463;-72
2023/05/07 10:17:57;;;;;;;3.90;3.53;;;20.10;99.90;;;;;;5033910;28;20452;-71
2023/05/07 10:20:25;;;;;;;4.37;4.07;;;20.20;99.90;;;;;;5029249;28;20535;-69
2023/05/07 10:22:55;;;;;;;4.47;4.07;;;20.20;99.90;;;;;;5049176;28;20513;-72
2023/05/07 10:25:30;;;;;;;3.30;3.10;;;20.50;99.90;;;;;;5037403;28;20973;-71
2023/05/07 10:28:03;;;;;;;3.27;3.07;;;20.60;99.90;;;;;;5049665;28;20508;-72
2023/05/07 10:30:49;;;;;;;3.47;3.17;;;20.70;99.90;;;;;;5065526;28;20466;-72
2023/05/07 10:33:21;;;;;;;4.00;3.60;;;20.80;99.90;;;;;;5046859;28;20487;-72
2023/05/07 10:35:47;;;;;;;3.77;3.50;;;20.80;99.90;;;;;;5033102;28;21002;-73
2023/05/07 10:38:15;;;;;;;6.40;3.77;;;20.70;99.90;;;;;;5041948;28;20443;-73
2023/05/07 10:40:43;;;;;;;4.07;3.77;;;20.60;99.90;;;;;;5042543;28;20443;-71
2023/05/07 10:43:10;;;;;;;3.40;3.10;;;21.00;99.90;;;;;;5037422;28;20536;-71
2023/05/07 10:46:16;;;;;;;3.40;3.20;;;21.20;99.90;;;;;;5048187;28;20608;-71
2023/05/07 10:49:00;;;;;;;5.10;4.03;;;21.20;99.90;;;;;;5033076;28;20462;-74
2023/05/07 10:51:28;;;;;;;4.80;4.30;;;21.20;99.90;;;;;;5036588;28;20471;-72
2023/05/07 10:54:14;;;;;;;4.27;3.87;;;21.20;99.90;;;;;;5017971;28;20896;-72
2023/05/07 10:56:47;;;;;;;4.00;3.10;;;21.20;99.90;;;;;;5032422;28;20973;-72
2023/05/07 10:59:26;;;;;;;3.50;3.20;;;21.20;99.90;;;;;;5016515;28;20450;-74
2023/05/07 11:01:57;;;;;;;3.47;3.27;;;21.40;99.90;;;;;;5004824;28;20456;-71
2023/05/07 11:04:38;;;;;;;4.03;3.70;;;21.40;99.90;;;;;;5030638;28;20477;-72
2023/05/07 11:07:29;;;;;;;4.27;3.97;;;21.10;99.90;;;;;;5025830;28;21048;-69
2023/05/07 11:10:03;;;;;;;5.00;3.50;;;21.40;99.90;;;;;;5045088;28;20455;-73
2023/05/07 11:12:45;;;;;;;7.40;3.40;;;21.60;99.90;;;;;;5046755;28;20467;-74
2023/05/07 11:15:33;;;;;;;3.60;3.40;;;21.60;99.90;;;;;;5042738;28;20455;-72
2023/05/07 11:18:00;;;;;;;9.10;3.80;;;21.60;99.90;;;;;;5046296;28;20450;-72
2023/05/07 11:20:48;;;;;;;4.03;3.70;;;21.60;99.90;;;;;;5035484;28;20442;-72
2023/05/07 11:23:55;;;;;;;3.53;3.23;;;21.60;99.90;;;;;;5032411;28;21147;-73
2023/05/07 11:26:48;;;;;;;4.63;4.30;;;21.60;99.90;;;;;;5046795;28;20442;-73
2023/05/07 11:29:19;;;;;;;3.97;3.57;;;21.70;99.90;;;;;;5030990;28;20442;-72
2023/05/07 11:31:52;;;;;;;3.70;3.40;;;21.80;99.90;;;;;;5033022;28;20616;-73
2023/05/07 11:34:26;;;;;;;5.73;3.80;;;21.80;99.90;;;;;;5043515;28;20451;-72
2023/05/07 11:36:54;;;;;;;3.57;3.27;;;22.00;99.90;;;;;;5041901;28;20447;-73
2023/05/07 11:39:32;;;;;;;4.03;3.63;;;22.10;99.90;;;;;;5036709;28;20462;-72
2023/05/07 11:42:01;;;;;;;4.63;3.73;;;22.10;99.90;;;;;;5050466;28;20455;-72
2023/05/07 11:44:45;;;;;;;4.10;3.80;;;22.00;99.90;;;;;;5055120;28;20554;-72
2023/05/07 11:47:16;;;;;;;3.80;3.50;;;21.90;99.90;;;;;;5048014;28;20454;-74
2023/05/07 11:49:42;;;;;;;4.00;3.10;;;21.90;99.90;;;;;;5058300;28;20462;-72
2023/05/07 11:52:08;;;;;;;4.23;3.83;;;21.90;99.90;;;;;;5048197;28;20467;-73
2023/05/07 11:54:39;;;;;;;3.90;3.60;;;21.90;99.90;;;;;;5029134;28;20575;-71
2023/05/07 11:57:07;;;;;;;5.50;3.83;;;22.00;99.90;;;;;;5049517;28;20337;-72
2023/05/07 11:59:44;;;;;;;4.27;3.57;;;22.20;99.90;;;;;;5031253;28;20447;-73
2023/05/07 12:02:10;;;;;;;4.40;4.00;;;22.20;99.90;;;;;;5042492;28;20573;-73
2023/05/07 12:04:37;;;;;;;4.47;4.17;;;22.20;99.90;;;;;;5048828;28;20459;-72
2023/05/07 12:07:03;;;;;;;4.53;4.23;;;22.20;99.90;;;;;;5030419;28;20470;-72
2023/05/07 12:09:29;;;;;;;3.80;3.50;;;22.30;99.90;;;;;;5043256;28;20492;-72
2023/05/07 12:11:56;;;;;;;4.20;3.80;;;22.50;99.90;;;;;;5045657;28;20312;-72
2023/05/07 12:14:21;;;;;;;4.60;4.30;;;22.60;99.90;;;;;;5027581;28;21118;-73
2023/05/07 12:16:47;;;;;;;4.33;4.03;;;22.50;99.90;;;;;;5042973;28;20549;-74
2023/05/07 12:19:14;;;;;;;4.10;3.70;;;22.60;99.90;;;;;;5037198;28;20311;-73
2023/05/07 12:21:40;;;;;;;5.93;4.07;;;22.60;99.90;;;;;;5024025;28;20454;-71
2023/05/07 12:24:06;;;;;;;3.80;3.50;;;22.80;99.90;;;;;;5021033;28;20904;-72
2023/05/07 12:26:32;;;;;;;4.60;4.17;;;22.70;99.90;;;;;;5023170;28;20478;-71
2023/05/07 12:28:58;;;;;;;4.90;4.43;;;22.70;99.90;;;;;;5031969;28;20227;-72
2023/05/07 12:31:26;;;;;;;4.10;3.80;;;22.70;99.90;;;;;;5027095;28;20228;-72
2023/05/07 12:33:52;;;;;;;5.33;3.53;;;22.70;99.90;;;;;;5039736;28;20499;-73
2023/05/07 12:36:17;;;;;;;4.57;4.10;;;22.70;99.90;;;;;;5026942;28;20462;-72
2023/05/07 12:38:43;;;;;;;3.53;3.27;;;22.80;99.90;;;;;;5022481;28;20957;-73
2023/05/07 12:41:12;;;;;;;4.60;4.20;;;22.80;99.90;;;;;;5009991;28;20777;-73
2023/05/07 12:43:38;;;;;;;6.10;3.83;;;22.90;99.90;;;;;;5030787;28;20235;-73
2023/05/07 12:46:06;;;;;;;3.70;3.40;;;22.70;99.90;;;;;;5008836;28;20471;-73
2023/05/07 12:48:32;;;;;;;3.47;3.27;;;22.80;99.90;;;;;;5026485;28;20466;-71
2023/05/07 12:51:00;;;;;;;3.70;3.40;;;22.90;99.90;;;;;;5010301;28;20556;-73
2023/05/07 12:53:26;;;;;;;4.13;3.80;;;23.10;99.90;;;;;;4997380;28;20468;-74